createdAt,value
2023-12-19T00:00:48.759Z,17.67
2023-12-19T00:01:28.825Z,17.27
2023-12-19T00:02:07.364Z,16.60
2023-12-19T00:02:39.199Z,16.67
2023-12-19T00:03:11.224Z,15.95
2023-12-19T00:03:43.243Z,16.77
2023-12-19T00:04:20.336Z,17.27
2023-12-19T00:04:52.154Z,16.88
2023-12-19T00:05:24.193Z,17.75
2023-12-19T00:06:54.450Z,17.25
2023-12-19T00:08:06.890Z,16.08
2023-12-19T00:08:44.803Z,16.45
2023-12-19T00:09:16.789Z,16.27
2023-12-19T00:09:48.642Z,15.75
2023-12-19T00:10:20.528Z,16.85
2023-12-19T00:10:52.657Z,16.17
2023-12-19T00:11:24.449Z,18.60
2023-12-19T00:11:56.245Z,16.20
2023-12-19T00:12:43.762Z,15.95
2023-12-19T00:13:15.847Z,16.48
2023-12-19T00:13:47.830Z,16.08
2023-12-19T00:14:19.623Z,16.20
2023-12-19T00:14:51.421Z,16.33
2023-12-19T00:15:24.602Z,16.33
2023-12-19T00:15:56.493Z,17.27
2023-12-19T00:16:28.335Z,15.65
2023-12-19T00:17:00.472Z,15.88
2023-12-19T00:17:32.327Z,16.10
2023-12-19T00:18:04.782Z,15.30
2023-12-19T00:18:39.783Z,15.88
2023-12-19T00:19:11.778Z,15.82
2023-12-19T00:19:43.889Z,16.38
2023-12-19T00:20:15.959Z,15.93
2023-12-19T00:20:47.762Z,15.27
2023-12-19T00:21:19.582Z,15.55
2023-12-19T00:21:51.426Z,15.63
2023-12-19T00:22:23.528Z,16.25
2023-12-19T00:22:55.348Z,16.48
2023-12-19T00:23:27.196Z,16.27
2023-12-19T00:23:59.468Z,16.30
2023-12-19T00:25:17.321Z,15.45
2023-12-19T00:25:49.301Z,15.75
2023-12-19T00:26:21.074Z,16.70
2023-12-19T00:26:52.959Z,15.45
2023-12-19T00:27:24.881Z,15.90
2023-12-19T00:27:56.851Z,16.15
2023-12-19T00:28:28.885Z,15.75
2023-12-19T00:29:00.756Z,15.50
2023-12-19T00:29:32.613Z,15.95
2023-12-19T00:30:05.910Z,15.93
2023-12-19T00:30:39.837Z,16.35
2023-12-19T00:31:19.358Z,16.30
2023-12-19T00:31:51.270Z,15.52
2023-12-19T00:32:23.073Z,16.60
2023-12-19T00:32:55.045Z,15.90
2023-12-19T00:33:27.072Z,15.40
2023-12-19T00:34:00.062Z,15.43
2023-12-19T00:34:31.979Z,16.02
2023-12-19T00:35:05.458Z,14.98
2023-12-19T00:35:37.561Z,15.48
2023-12-19T00:36:21.297Z,15.65
2023-12-19T00:36:53.145Z,14.93
2023-12-19T00:37:25.060Z,15.70
2023-12-19T00:37:56.856Z,15.10
2023-12-19T00:38:28.607Z,15.85
2023-12-19T00:39:00.405Z,15.07
2023-12-19T00:39:32.269Z,14.95
2023-12-19T00:40:07.417Z,15.57
2023-12-19T00:40:39.249Z,16.27
2023-12-19T00:41:17.217Z,15.25
2023-12-19T00:41:49.040Z,15.40
2023-12-19T00:42:20.871Z,15.73
2023-12-19T00:42:52.754Z,15.93
2023-12-19T00:43:24.581Z,16.33
2023-12-19T00:43:56.638Z,15.73
2023-12-19T00:44:28.479Z,16.15
2023-12-19T00:45:00.313Z,16.50
2023-12-19T00:45:32.267Z,14.85
2023-12-19T00:46:05.529Z,15.95
2023-12-19T00:46:37.355Z,15.75
2023-12-19T00:47:09.141Z,16.63
2023-12-19T00:47:41.015Z,15.13
2023-12-19T00:48:13.134Z,16.25
2023-12-19T00:48:45.246Z,15.65
2023-12-19T00:49:17.255Z,16.02
2023-12-19T00:49:49.255Z,15.82
2023-12-19T00:50:21.196Z,16.35
2023-12-19T00:50:53.025Z,15.05
2023-12-19T00:51:24.903Z,15.20
2023-12-19T00:51:56.909Z,15.55
2023-12-19T00:52:28.741Z,15.38
2023-12-19T00:53:00.545Z,15.45
2023-12-19T00:53:32.346Z,16.10
2023-12-19T00:54:04.655Z,15.65
2023-12-19T00:54:36.608Z,15.05
2023-12-19T00:55:09.305Z,15.13
2023-12-19T00:55:41.153Z,15.82
2023-12-19T00:56:13.014Z,16.10
2023-12-19T00:56:44.920Z,15.43
2023-12-19T00:57:16.752Z,15.18
2023-12-19T00:57:48.774Z,15.63
2023-12-19T00:58:20.623Z,18.10
2023-12-19T00:58:54.977Z,16.70
2023-12-19T00:59:26.768Z,17.73
2023-12-19T00:59:58.578Z,16.17
2023-12-19T01:00:30.404Z,15.32
2023-12-19T01:01:02.292Z,15.90
2023-12-19T01:01:35.509Z,15.15
2023-12-19T01:02:07.565Z,15.50
2023-12-19T01:03:47.545Z,15.80
2023-12-19T01:04:45.804Z,15.55
2023-12-19T01:06:25.327Z,14.80
2023-12-19T01:06:57.306Z,16.38
2023-12-19T01:07:29.194Z,15.75
2023-12-19T01:08:01.161Z,15.27
2023-12-19T01:08:33.060Z,16.63
2023-12-19T01:09:04.987Z,16.17
2023-12-19T01:09:37.236Z,15.35
2023-12-19T01:10:09.462Z,16.05
2023-12-19T01:10:41.364Z,15.48
2023-12-19T01:11:13.213Z,15.10
2023-12-19T01:11:45.028Z,14.82
2023-12-19T01:12:17.036Z,15.80
2023-12-19T01:12:48.934Z,15.23
2023-12-19T01:13:20.882Z,14.63
2023-12-19T01:13:52.738Z,16.33
2023-12-19T01:14:24.578Z,15.23
2023-12-19T01:14:56.404Z,15.15
2023-12-19T01:15:28.237Z,14.45
2023-12-19T01:16:00.280Z,15.25
2023-12-19T01:16:32.294Z,15.73
2023-12-19T01:17:05.634Z,14.98
2023-12-19T01:17:37.651Z,15.13
2023-12-19T01:18:09.719Z,14.93
2023-12-19T01:18:41.708Z,14.93
2023-12-19T01:19:14.493Z,14.40
2023-12-19T01:19:46.648Z,15.20
2023-12-19T01:20:18.817Z,15.10
2023-12-19T01:20:50.604Z,14.98
2023-12-19T01:21:22.521Z,15.20
2023-12-19T01:21:54.344Z,14.57
2023-12-19T01:22:26.365Z,14.35
2023-12-19T01:22:58.171Z,14.13
2023-12-19T01:23:30.013Z,15.00
2023-12-19T01:24:02.053Z,14.98
2023-12-19T01:24:35.811Z,14.63
2023-12-19T01:25:08.618Z,16.73
2023-12-19T01:25:40.647Z,18.73
2023-12-19T01:26:19.673Z,15.05
2023-12-19T01:26:52.347Z,14.82
2023-12-19T01:27:24.210Z,14.68
2023-12-19T01:27:56.162Z,16.13
2023-12-19T01:28:28.262Z,16.75
2023-12-19T01:29:00.249Z,15.40
2023-12-19T01:29:32.018Z,15.13
2023-12-19T01:30:04.737Z,15.07
2023-12-19T01:30:36.698Z,15.30
2023-12-19T01:31:08.803Z,16.25
2023-12-19T01:31:40.887Z,16.55
2023-12-19T01:32:14.110Z,16.63
2023-12-19T01:32:46.282Z,16.70
2023-12-19T01:33:18.599Z,17.23
2023-12-19T01:33:51.562Z,16.10
2023-12-19T01:34:23.617Z,16.27
2023-12-19T01:34:55.635Z,16.45
2023-12-19T01:35:27.637Z,16.55
2023-12-19T01:36:00.255Z,16.50
2023-12-19T01:36:33.021Z,15.77
2023-12-19T01:37:05.225Z,18.60
2023-12-19T01:37:37.017Z,16.80
2023-12-19T01:38:09.456Z,16.50
2023-12-19T01:38:41.280Z,15.85
2023-12-19T01:39:13.249Z,16.15
2023-12-19T01:39:45.361Z,16.75
2023-12-19T01:40:17.946Z,15.90
2023-12-19T01:40:50.154Z,17.05
2023-12-19T01:41:21.970Z,15.90
2023-12-19T01:41:53.798Z,15.77
2023-12-19T01:42:25.783Z,16.33
2023-12-19T01:42:57.739Z,16.73
2023-12-19T01:43:29.613Z,16.15
2023-12-19T01:44:02.278Z,15.15
2023-12-19T01:44:34.051Z,16.17
2023-12-19T01:45:09.911Z,15.18
2023-12-19T01:45:42.120Z,14.90
2023-12-19T01:46:16.958Z,15.27
2023-12-19T01:46:48.970Z,16.17
2023-12-19T01:47:25.615Z,15.25
2023-12-19T01:47:58.364Z,15.20
2023-12-19T01:48:30.352Z,15.77
2023-12-19T01:49:02.317Z,15.52
2023-12-19T01:49:34.542Z,16.02
2023-12-19T01:50:08.575Z,15.20
2023-12-19T01:50:40.584Z,15.52
2023-12-19T01:51:12.940Z,15.30
2023-12-19T01:51:45.036Z,15.32
2023-12-19T01:52:16.873Z,15.75
2023-12-19T01:52:53.677Z,15.60
2023-12-19T01:53:26.011Z,15.13
2023-12-19T01:53:57.840Z,15.70
2023-12-19T01:54:30.052Z,16.50
2023-12-19T01:55:02.254Z,15.93
2023-12-19T01:55:34.665Z,15.73
2023-12-19T01:56:07.630Z,15.57
2023-12-19T01:57:26.790Z,16.73
2023-12-19T01:57:58.748Z,16.42
2023-12-19T01:58:31.387Z,17.08
2023-12-19T01:59:04.745Z,16.63
2023-12-19T01:59:36.532Z,17.17
2023-12-19T02:00:10.011Z,16.40
2023-12-19T02:00:41.958Z,16.83
2023-12-19T02:01:15.033Z,16.15
2023-12-19T02:01:47.477Z,16.80
2023-12-19T02:02:19.331Z,16.58
2023-12-19T02:02:53.564Z,17.55
2023-12-19T02:03:25.660Z,18.30
2023-12-19T02:03:57.751Z,17.95
2023-12-19T02:04:29.750Z,18.88
2023-12-19T02:05:02.902Z,19.13
2023-12-19T02:05:39.060Z,19.77
2023-12-19T02:06:11.716Z,17.40
2023-12-19T02:06:43.521Z,17.80
2023-12-19T02:07:15.492Z,18.92
2023-12-19T02:07:48.167Z,18.35
2023-12-19T02:08:20.368Z,19.58
2023-12-19T02:08:52.514Z,18.38
2023-12-19T02:09:24.489Z,18.58
2023-12-19T02:09:56.428Z,19.52
2023-12-19T02:10:28.278Z,18.90
2023-12-19T02:11:00.122Z,19.13
2023-12-19T02:11:31.997Z,18.95
2023-12-19T02:12:05.019Z,19.50
2023-12-19T02:12:37.054Z,18.73
2023-12-19T02:13:08.974Z,19.05
2023-12-19T02:13:42.861Z,18.98
2023-12-19T02:14:14.756Z,20.13
2023-12-19T02:14:47.295Z,18.55
2023-12-19T02:15:19.496Z,20.02
2023-12-19T02:15:51.858Z,20.92
2023-12-19T02:16:23.767Z,20.80
2023-12-19T02:16:55.590Z,20.02
2023-12-19T02:17:27.490Z,20.40
2023-12-19T02:18:14.502Z,19.08
2023-12-19T02:19:00.609Z,19.33
2023-12-19T02:19:32.739Z,21.60
2023-12-19T02:20:06.140Z,21.13
2023-12-19T02:20:37.918Z,20.40
2023-12-19T02:21:09.784Z,20.52
2023-12-19T02:21:41.595Z,23.17
2023-12-19T02:22:13.815Z,21.05
2023-12-19T02:22:50.136Z,21.20
2023-12-19T02:23:22.637Z,23.08
2023-12-19T02:23:54.970Z,21.75
2023-12-19T02:24:26.833Z,24.60
2023-12-19T02:24:59.130Z,21.60
2023-12-19T02:25:31.054Z,21.55
2023-12-19T02:26:03.033Z,21.33
2023-12-19T02:26:34.932Z,21.55
2023-12-19T02:27:08.236Z,22.58
2023-12-19T02:27:40.122Z,20.80
2023-12-19T02:28:12.125Z,23.00
2023-12-19T02:28:44.021Z,22.02
2023-12-19T02:29:15.948Z,21.33
2023-12-19T02:29:47.756Z,22.02
2023-12-19T02:30:19.647Z,20.60
2023-12-19T02:30:51.668Z,21.73
2023-12-19T02:31:23.836Z,22.67
2023-12-19T02:31:55.826Z,23.02
2023-12-19T02:32:27.642Z,22.83
2023-12-19T02:32:59.500Z,21.27
2023-12-19T02:33:31.449Z,22.27
2023-12-19T02:34:03.309Z,25.08
2023-12-19T02:34:35.380Z,22.13
2023-12-19T02:35:08.271Z,22.58
2023-12-19T02:35:40.125Z,21.05
2023-12-19T02:36:12.707Z,24.55
2023-12-19T02:36:44.590Z,21.23
2023-12-19T02:37:16.529Z,20.98
2023-12-19T02:37:49.663Z,21.42
2023-12-19T02:38:21.543Z,21.38
2023-12-19T02:38:53.366Z,21.92
2023-12-19T02:39:25.273Z,20.83
2023-12-19T02:39:57.131Z,21.63
2023-12-19T02:40:30.272Z,23.42
2023-12-19T02:41:02.075Z,21.98
2023-12-19T02:41:33.876Z,20.40
2023-12-19T02:42:05.721Z,23.20
2023-12-19T02:42:41.773Z,22.17
2023-12-19T02:43:13.865Z,21.52
2023-12-19T02:43:53.988Z,22.90
2023-12-19T02:44:27.298Z,21.13
2023-12-19T02:44:59.095Z,21.73
2023-12-19T02:45:30.937Z,22.92
2023-12-19T02:46:02.845Z,20.55
2023-12-19T02:46:34.728Z,21.83
2023-12-19T02:47:06.535Z,20.70
2023-12-19T02:47:38.556Z,20.75
2023-12-19T02:48:10.531Z,20.73
2023-12-19T02:48:42.481Z,21.58
2023-12-19T02:49:14.577Z,20.10
2023-12-19T02:49:46.620Z,23.85
2023-12-19T02:50:18.800Z,19.15
2023-12-19T02:50:50.622Z,21.88
2023-12-19T02:51:22.717Z,21.33
2023-12-19T02:51:54.701Z,20.23
2023-12-19T02:52:26.619Z,19.50
2023-12-19T02:52:59.767Z,19.85
2023-12-19T02:53:31.550Z,20.73
2023-12-19T02:54:03.445Z,19.63
2023-12-19T02:54:35.269Z,19.17
2023-12-19T02:55:08.466Z,19.45
2023-12-19T02:55:40.419Z,19.55
2023-12-19T02:56:12.220Z,18.55
2023-12-19T02:56:44.038Z,18.73
2023-12-19T02:57:15.813Z,22.35
2023-12-19T02:57:47.648Z,20.00
2023-12-19T02:58:19.494Z,18.58
2023-12-19T02:58:51.582Z,19.90
2023-12-19T02:59:23.395Z,19.38
2023-12-19T02:59:55.188Z,19.50
2023-12-19T03:00:27.172Z,19.88
2023-12-19T03:00:59.160Z,18.20
2023-12-19T03:01:31.126Z,18.52
2023-12-19T03:02:03.013Z,19.20
2023-12-19T03:02:34.829Z,18.63
2023-12-19T03:03:06.952Z,20.17
2023-12-19T03:03:40.841Z,20.38
2023-12-19T03:04:13.171Z,18.42
2023-12-19T03:04:45.084Z,19.02
2023-12-19T03:05:17.174Z,18.75
2023-12-19T03:05:49.047Z,18.27
2023-12-19T03:06:22.709Z,20.10
2023-12-19T03:07:52.744Z,18.30
2023-12-19T03:08:25.907Z,18.13
2023-12-19T03:08:57.717Z,18.45
2023-12-19T03:09:29.577Z,17.98
2023-12-19T03:10:01.533Z,18.38
2023-12-19T03:10:33.371Z,18.38
2023-12-19T03:11:05.349Z,18.75
2023-12-19T03:11:37.386Z,20.50
2023-12-19T03:12:09.223Z,17.75
2023-12-19T03:12:41.293Z,18.23
2023-12-19T03:13:13.395Z,17.67
2023-12-19T03:13:48.702Z,17.98
2023-12-19T03:14:21.625Z,18.50
2023-12-19T03:14:55.713Z,17.10
2023-12-19T03:15:27.570Z,16.80
2023-12-19T03:15:59.827Z,17.08
2023-12-19T03:16:32.118Z,18.65
2023-12-19T03:17:05.717Z,16.88
2023-12-19T03:17:37.586Z,17.00
2023-12-19T03:18:09.585Z,17.30
2023-12-19T03:18:41.476Z,16.13
2023-12-19T03:19:13.473Z,16.98
2023-12-19T03:19:45.354Z,16.08
2023-12-19T03:20:17.290Z,16.15
2023-12-19T03:20:49.106Z,17.20
2023-12-19T03:21:20.920Z,17.00
2023-12-19T03:21:52.880Z,16.35
2023-12-19T03:22:24.755Z,16.05
2023-12-19T03:22:56.562Z,16.77
2023-12-19T03:23:29.687Z,15.98
2023-12-19T03:24:01.465Z,15.18
2023-12-19T03:24:33.370Z,15.90
2023-12-19T03:25:05.869Z,15.13
2023-12-19T03:25:39.881Z,14.70
2023-12-19T03:26:11.712Z,15.65
2023-12-19T03:26:43.537Z,16.52
2023-12-19T03:27:15.449Z,15.23
2023-12-19T03:27:47.356Z,15.55
2023-12-19T03:28:19.313Z,14.63
2023-12-19T03:28:53.106Z,14.93
2023-12-19T03:29:25.617Z,13.60
2023-12-19T03:29:57.401Z,14.18
2023-12-19T03:30:29.234Z,13.30
2023-12-19T03:31:01.197Z,13.07
2023-12-19T03:31:33.156Z,13.18
2023-12-19T03:32:06.979Z,12.45
2023-12-19T03:32:53.442Z,12.52
2023-12-19T03:33:25.714Z,12.80
2023-12-19T03:33:57.993Z,11.88
2023-12-19T03:34:30.046Z,12.73
2023-12-19T03:35:02.091Z,11.98
2023-12-19T03:35:33.997Z,11.93
2023-12-19T03:36:06.349Z,11.65
2023-12-19T03:36:38.881Z,10.32
2023-12-19T03:37:10.719Z,10.35
2023-12-19T03:37:42.534Z,10.75
2023-12-19T03:38:14.469Z,10.55
2023-12-19T03:38:49.155Z,10.38
2023-12-19T03:39:21.013Z,9.77
2023-12-19T03:39:52.906Z,9.85
2023-12-19T03:40:25.009Z,9.70
2023-12-19T03:40:56.801Z,9.90
2023-12-19T03:41:28.633Z,10.40
2023-12-19T03:42:11.259Z,9.57
2023-12-19T03:42:45.258Z,10.10
2023-12-19T03:43:17.284Z,9.32
2023-12-19T03:43:49.148Z,9.05
2023-12-19T03:45:23.136Z,8.55
2023-12-19T03:45:55.029Z,9.00
2023-12-19T03:46:26.841Z,8.73
2023-12-19T03:46:58.633Z,9.40
2023-12-19T03:47:30.426Z,8.95
2023-12-19T03:48:02.412Z,8.95
2023-12-19T03:48:34.653Z,8.45
2023-12-19T03:49:06.538Z,8.90
2023-12-19T03:49:38.494Z,8.68
2023-12-19T03:50:11.262Z,8.57
2023-12-19T03:50:43.143Z,8.95
2023-12-19T03:51:15.012Z,8.77
2023-12-19T03:51:47.071Z,8.48
2023-12-19T03:52:18.935Z,8.48
2023-12-19T03:52:50.812Z,7.97
2023-12-19T03:53:23.070Z,8.18
2023-12-19T03:53:56.211Z,7.93
2023-12-19T03:54:35.389Z,8.13
2023-12-19T03:55:10.626Z,9.00
2023-12-19T03:55:42.564Z,8.35
2023-12-19T03:56:14.461Z,8.50
2023-12-19T03:56:46.292Z,8.07
2023-12-19T03:57:18.131Z,8.45
2023-12-19T03:57:50.045Z,7.35
2023-12-19T03:58:22.059Z,7.68
2023-12-19T03:58:53.829Z,7.95
2023-12-19T03:59:25.670Z,7.95
2023-12-19T03:59:57.448Z,7.72
2023-12-19T04:00:29.283Z,8.00
2023-12-19T04:01:01.522Z,7.63
2023-12-19T04:02:19.337Z,6.85
2023-12-19T04:02:51.145Z,7.15
2023-12-19T04:03:22.987Z,7.80
2023-12-19T04:03:55.066Z,7.72
2023-12-19T04:04:27.003Z,7.40
2023-12-19T04:04:58.909Z,7.43
2023-12-19T04:05:30.868Z,7.55
2023-12-19T04:06:02.738Z,7.22
2023-12-19T04:06:34.594Z,7.22
2023-12-19T04:07:06.934Z,6.72
2023-12-19T04:08:26.729Z,6.88
2023-12-19T04:08:59.925Z,6.32
2023-12-19T04:09:31.813Z,7.10
2023-12-19T04:10:04.272Z,6.95
2023-12-19T04:10:36.750Z,6.50
2023-12-19T04:11:08.543Z,6.55
2023-12-19T04:11:40.357Z,6.20
2023-12-19T04:12:12.180Z,6.43
2023-12-19T04:12:44.150Z,6.45
2023-12-19T04:13:16.234Z,6.07
2023-12-19T04:13:48.076Z,6.75
2023-12-19T04:14:19.845Z,5.63
2023-12-19T04:14:51.661Z,6.45
2023-12-19T04:15:23.543Z,6.15
2023-12-19T04:15:55.408Z,6.38
2023-12-19T04:16:27.268Z,6.38
2023-12-19T04:16:59.600Z,6.40
2023-12-19T04:17:31.493Z,6.57
2023-12-19T04:18:03.635Z,6.18
2023-12-19T04:18:35.497Z,6.70
2023-12-19T04:19:07.539Z,6.40
2023-12-19T04:19:41.025Z,6.80
2023-12-19T04:20:13.566Z,6.90
2023-12-19T04:20:45.412Z,6.32
2023-12-19T04:21:17.305Z,6.95
2023-12-19T04:21:49.643Z,6.35
2023-12-19T04:22:21.502Z,6.40
2023-12-19T04:22:53.313Z,6.97
2023-12-19T04:23:25.079Z,7.03
2023-12-19T04:23:56.865Z,6.45
2023-12-19T04:24:30.446Z,6.68
2023-12-19T04:25:03.688Z,6.53
2023-12-19T04:25:36.064Z,6.85
2023-12-19T04:26:07.880Z,6.80
2023-12-19T04:26:39.678Z,6.72
2023-12-19T04:27:11.447Z,6.47
2023-12-19T04:27:43.410Z,7.03
2023-12-19T04:28:15.201Z,7.43
2023-12-19T04:28:47.100Z,7.20
2023-12-19T04:29:18.919Z,7.53
2023-12-19T04:29:50.717Z,7.20
2023-12-19T04:30:22.664Z,7.18
2023-12-19T04:30:54.545Z,7.88
2023-12-19T04:31:26.592Z,7.05
2023-12-19T04:31:58.442Z,7.50
2023-12-19T04:32:30.325Z,7.72
2023-12-19T04:33:02.208Z,7.20
2023-12-19T04:33:34.199Z,7.97
2023-12-19T04:34:06.227Z,7.53
2023-12-19T04:34:38.166Z,7.10
2023-12-19T04:35:10.085Z,8.00
2023-12-19T04:35:42.058Z,8.20
2023-12-19T04:36:13.982Z,7.97
2023-12-19T04:36:45.946Z,7.63
2023-12-19T04:37:17.763Z,8.15
2023-12-19T04:37:49.563Z,8.27
2023-12-19T04:38:21.337Z,7.93
2023-12-19T04:38:53.409Z,8.25
2023-12-19T04:39:27.216Z,8.48
2023-12-19T04:40:00.897Z,8.48
2023-12-19T04:40:32.720Z,8.35
2023-12-19T04:41:04.844Z,8.70
2023-12-19T04:41:36.653Z,8.15
2023-12-19T04:42:08.483Z,8.50
2023-12-19T04:42:40.500Z,8.20
2023-12-19T04:43:12.614Z,8.48
2023-12-19T04:43:44.442Z,8.73
2023-12-19T04:44:16.363Z,8.45
2023-12-19T04:44:48.408Z,8.43
2023-12-19T04:45:20.240Z,7.95
2023-12-19T04:45:52.200Z,9.05
2023-12-19T04:46:24.101Z,8.77
2023-12-19T04:46:55.894Z,9.43
2023-12-19T04:47:27.687Z,9.27
2023-12-19T04:47:59.621Z,9.02
2023-12-19T04:48:31.523Z,8.40
2023-12-19T04:49:03.430Z,9.02
2023-12-19T04:49:35.369Z,8.45
2023-12-19T04:50:08.872Z,8.73
2023-12-19T04:50:40.682Z,8.80
2023-12-19T04:51:17.645Z,8.73
2023-12-19T04:51:49.438Z,8.68
2023-12-19T04:52:21.254Z,8.35
2023-12-19T04:52:53.220Z,8.48
2023-12-19T04:53:25.037Z,8.20
2023-12-19T04:53:56.813Z,8.60
2023-12-19T04:54:28.627Z,8.35
2023-12-19T04:55:01.782Z,8.50
2023-12-19T04:55:33.641Z,8.18
2023-12-19T04:56:06.545Z,8.32
2023-12-19T04:56:38.519Z,8.60
2023-12-19T04:57:10.324Z,8.80
2023-12-19T04:57:42.178Z,8.50
2023-12-19T04:58:13.993Z,8.73
2023-12-19T04:58:46.379Z,8.00
2023-12-19T04:59:18.253Z,8.32
2023-12-19T04:59:50.051Z,9.23
2023-12-19T05:00:22.078Z,9.52
2023-12-19T05:00:57.428Z,9.23
2023-12-19T05:01:29.444Z,8.65
2023-12-19T05:02:01.317Z,8.75
2023-12-19T05:02:33.152Z,8.80
2023-12-19T05:03:05.112Z,8.95
2023-12-19T05:03:37.720Z,8.70
2023-12-19T05:04:09.602Z,10.38
2023-12-19T05:04:41.400Z,8.60
2023-12-19T05:05:13.351Z,8.57
2023-12-19T05:05:45.218Z,9.38
2023-12-19T05:06:17.068Z,9.23
2023-12-19T05:06:48.980Z,8.82
2023-12-19T05:07:20.804Z,9.70
2023-12-19T05:07:52.650Z,9.40
2023-12-19T05:08:24.461Z,9.18
2023-12-19T05:08:56.603Z,9.23
2023-12-19T05:09:28.406Z,8.57
2023-12-19T05:10:02.128Z,9.80
2023-12-19T05:10:34.792Z,9.30
2023-12-19T05:11:07.087Z,9.35
2023-12-19T05:11:39.005Z,9.60
2023-12-19T05:12:10.808Z,9.70
2023-12-19T05:12:42.814Z,9.55
2023-12-19T05:13:14.746Z,9.55
2023-12-19T05:13:47.409Z,9.82
2023-12-19T05:14:20.182Z,9.57
2023-12-19T05:14:53.525Z,9.90
2023-12-19T05:15:25.350Z,11.18
2023-12-19T05:15:57.218Z,9.38
2023-12-19T05:16:29.100Z,10.40
2023-12-19T05:17:01.060Z,9.55
2023-12-19T05:17:33.081Z,9.75
2023-12-19T05:18:09.062Z,9.52
2023-12-19T05:18:41.454Z,9.73
2023-12-19T05:19:13.557Z,9.40
2023-12-19T05:19:50.539Z,9.55
2023-12-19T05:20:25.788Z,9.70
2023-12-19T05:20:57.692Z,10.25
2023-12-19T05:21:29.553Z,10.10
2023-12-19T05:22:01.514Z,11.25
2023-12-19T05:22:33.400Z,10.48
2023-12-19T05:23:05.206Z,9.57
2023-12-19T05:23:37.829Z,10.98
2023-12-19T05:24:10.189Z,9.98
2023-12-19T05:24:42.910Z,9.70
2023-12-19T05:25:16.377Z,9.45
2023-12-19T05:25:48.234Z,10.18
2023-12-19T05:26:20.107Z,11.98
2023-12-19T05:26:55.487Z,10.18
2023-12-19T05:27:27.437Z,10.38
2023-12-19T05:27:59.277Z,11.43
2023-12-19T05:28:31.151Z,10.43
2023-12-19T05:29:02.996Z,10.77
2023-12-19T05:29:34.899Z,10.77
2023-12-19T05:30:08.484Z,11.27
2023-12-19T05:30:40.366Z,11.65
2023-12-19T05:31:12.367Z,11.18
2023-12-19T05:31:44.221Z,10.55
2023-12-19T05:32:16.084Z,10.65
2023-12-19T05:32:47.897Z,10.65
2023-12-19T05:33:20.718Z,10.77
2023-12-19T05:33:52.597Z,10.43
2023-12-19T05:34:24.493Z,11.05
2023-12-19T05:34:56.378Z,11.10
2023-12-19T05:35:28.193Z,11.93
2023-12-19T05:36:00.024Z,11.75
2023-12-19T05:36:33.719Z,11.18
2023-12-19T05:37:07.511Z,11.35
2023-12-19T05:37:39.343Z,11.52
2023-12-19T05:38:11.126Z,12.77
2023-12-19T05:38:42.974Z,11.65
2023-12-19T05:39:14.908Z,11.43
2023-12-19T05:39:46.765Z,12.73
2023-12-19T05:40:19.900Z,14.05
2023-12-19T05:40:51.725Z,12.43
2023-12-19T05:41:23.511Z,11.93
2023-12-19T05:41:56.104Z,11.52
2023-12-19T05:42:27.963Z,12.13
2023-12-19T05:42:59.816Z,12.95
2023-12-19T05:43:31.928Z,12.65
2023-12-19T05:44:04.188Z,11.93
2023-12-19T05:44:35.960Z,13.80
2023-12-19T05:45:09.543Z,13.43
2023-12-19T05:45:41.602Z,13.50
2023-12-19T05:46:13.533Z,13.15
2023-12-19T05:46:46.584Z,13.38
2023-12-19T05:47:18.387Z,13.55
2023-12-19T05:47:50.377Z,12.85
2023-12-19T05:48:22.600Z,12.93
2023-12-19T05:48:54.618Z,14.65
2023-12-19T05:49:26.614Z,13.82
2023-12-19T05:49:58.686Z,14.45
2023-12-19T05:50:30.497Z,12.75
2023-12-19T05:51:02.425Z,14.07
2023-12-19T05:51:34.312Z,15.05
2023-12-19T05:52:06.903Z,19.58
2023-12-19T05:52:38.754Z,16.58
2023-12-19T05:53:10.543Z,14.35
2023-12-19T05:53:42.335Z,16.30
2023-12-19T05:54:14.227Z,15.55
2023-12-19T05:54:51.939Z,16.63
2023-12-19T05:55:27.908Z,14.18
2023-12-19T05:56:22.496Z,14.82
2023-12-19T05:56:56.389Z,15.93
2023-12-19T05:57:28.244Z,15.07
2023-12-19T05:59:02.661Z,13.65
2023-12-19T05:59:34.957Z,13.25
2023-12-19T06:00:10.535Z,12.55
2023-12-19T06:00:42.935Z,13.00
2023-12-19T06:01:14.886Z,15.88
2023-12-19T06:01:46.890Z,14.38
2023-12-19T06:02:18.754Z,13.70
2023-12-19T06:02:51.016Z,15.13
2023-12-19T06:03:23.079Z,13.68
2023-12-19T06:03:55.133Z,13.40
2023-12-19T06:04:27.114Z,12.55
2023-12-19T06:05:00.716Z,12.88
2023-12-19T06:05:32.555Z,12.38
2023-12-19T06:06:05.409Z,13.80
2023-12-19T06:06:37.487Z,14.38
2023-12-19T06:07:09.349Z,13.65
2023-12-19T06:07:42.048Z,12.43
2023-12-19T06:08:13.966Z,12.18
2023-12-19T06:08:45.791Z,11.60
2023-12-19T06:09:20.747Z,11.73
2023-12-19T06:09:53.432Z,13.68
2023-12-19T06:10:26.616Z,12.60
2023-12-19T06:11:00.101Z,12.75
2023-12-19T06:11:32.465Z,11.73
2023-12-19T06:12:07.689Z,13.90
2023-12-19T06:12:41.271Z,12.68
2023-12-19T06:13:13.453Z,12.90
2023-12-19T06:13:45.264Z,13.07
2023-12-19T06:14:17.091Z,11.35
2023-12-19T06:14:48.883Z,11.10
2023-12-19T06:15:20.688Z,12.70
2023-12-19T06:15:56.494Z,13.40
2023-12-19T06:16:28.314Z,15.85
2023-12-19T06:17:00.326Z,12.65
2023-12-19T06:17:32.209Z,12.48
2023-12-19T06:18:05.160Z,11.45
2023-12-19T06:18:37.129Z,12.15
2023-12-19T06:19:10.349Z,11.50
2023-12-19T06:19:42.319Z,11.50
2023-12-19T06:20:14.186Z,12.35
2023-12-19T06:20:46.045Z,12.13
2023-12-19T06:21:17.844Z,11.25
2023-12-19T06:21:50.033Z,12.77
2023-12-19T06:22:21.828Z,12.52
2023-12-19T06:22:53.624Z,11.32
2023-12-19T06:23:25.412Z,11.35
2023-12-19T06:23:57.226Z,10.82
2023-12-19T06:24:29.049Z,12.02
2023-12-19T06:25:00.944Z,12.65
2023-12-19T06:25:34.153Z,11.27
2023-12-19T06:26:06.005Z,11.63
2023-12-19T06:26:37.878Z,11.40
2023-12-19T06:27:09.706Z,11.35
2023-12-19T06:27:41.781Z,11.77
2023-12-19T06:28:13.664Z,10.75
2023-12-19T06:28:45.734Z,10.35
2023-12-19T06:29:18.491Z,10.00
2023-12-19T06:29:50.296Z,11.30
2023-12-19T06:30:27.832Z,11.25
2023-12-19T06:31:03.816Z,10.52
2023-12-19T06:31:46.969Z,10.32
2023-12-19T06:32:19.182Z,9.82
2023-12-19T06:32:51.254Z,10.25
2023-12-19T06:33:24.076Z,10.13
2023-12-19T06:33:57.100Z,9.55
2023-12-19T06:34:29.530Z,10.02
2023-12-19T06:35:04.288Z,9.82
2023-12-19T06:35:40.735Z,10.32
2023-12-19T06:36:29.145Z,11.00
2023-12-19T06:37:00.992Z,9.55
2023-12-19T06:37:33.320Z,10.55
2023-12-19T06:38:05.230Z,10.50
2023-12-19T06:38:38.987Z,10.75
2023-12-19T06:39:10.856Z,9.77
2023-12-19T06:39:43.945Z,9.18
2023-12-19T06:40:17.865Z,8.75
2023-12-19T06:40:51.409Z,11.55
2023-12-19T06:41:30.074Z,11.38
2023-12-19T06:42:02.324Z,12.40
2023-12-19T06:42:34.851Z,12.85
2023-12-19T06:43:07.319Z,13.20
2023-12-19T06:43:39.555Z,12.15
2023-12-19T06:44:12.931Z,15.43
2023-12-19T06:44:45.373Z,14.65
2023-12-19T06:45:20.490Z,12.40
2023-12-19T06:45:53.338Z,12.20
2023-12-19T06:46:26.238Z,12.50
2023-12-19T06:46:59.184Z,11.60
2023-12-19T06:47:38.268Z,15.27
2023-12-19T06:48:11.400Z,11.88
2023-12-19T06:48:44.102Z,10.13
2023-12-19T06:49:19.385Z,9.18
2023-12-19T06:49:51.461Z,9.50
2023-12-19T06:50:23.671Z,10.00
2023-12-19T06:50:55.843Z,9.45
2023-12-19T06:51:28.190Z,11.73
2023-12-19T06:52:00.232Z,11.25
2023-12-19T06:52:32.295Z,10.85
2023-12-19T06:53:04.579Z,8.80
2023-12-19T06:53:36.517Z,8.68
2023-12-19T06:54:08.325Z,9.13
2023-12-19T06:54:41.922Z,10.25
2023-12-19T06:55:15.063Z,9.30
2023-12-19T06:55:47.091Z,9.77
2023-12-19T06:56:20.340Z,9.48
2023-12-19T06:56:59.383Z,11.25
2023-12-19T06:57:32.539Z,12.30
2023-12-19T06:58:04.711Z,13.00
2023-12-19T06:58:36.930Z,12.00
2023-12-19T06:59:10.173Z,9.55
2023-12-19T06:59:42.474Z,9.23
2023-12-19T07:00:15.639Z,9.00
2023-12-19T07:01:41.973Z,9.35
2023-12-19T07:02:19.063Z,8.80
2023-12-19T07:02:50.928Z,8.65
2023-12-19T07:03:22.737Z,9.63
2023-12-19T07:03:54.666Z,9.27
2023-12-19T07:04:26.563Z,8.77
2023-12-19T07:05:00.377Z,7.22
2023-12-19T07:05:32.700Z,8.68
2023-12-19T07:06:05.345Z,6.63
2023-12-19T07:07:24.117Z,7.95
2023-12-19T07:07:56.642Z,11.30
2023-12-19T07:08:38.105Z,9.23
2023-12-19T07:09:16.179Z,8.73
2023-12-19T07:09:48.114Z,7.07
2023-12-19T07:11:05.749Z,8.65
2023-12-19T07:11:43.758Z,8.13
2023-12-19T07:12:16.190Z,7.95
2023-12-19T07:12:48.060Z,9.23
2023-12-19T07:14:06.910Z,6.85
2023-12-19T07:14:38.877Z,6.43
2023-12-19T07:15:11.666Z,7.57
2023-12-19T07:15:43.887Z,7.55
2023-12-19T07:16:21.267Z,7.30
2023-12-19T07:16:53.118Z,7.95
2023-12-19T07:17:24.985Z,5.57
2023-12-19T07:17:56.910Z,6.38
2023-12-19T07:18:29.130Z,5.63